sensor_id;sensor_type;location;lat;lon;timestamp;pressure;altitude;pressure_sealevel;temperature;humidity
34065;BME280;20339;49.754;20.158;2023-02-01T00:00:17;95984.54;;;0.46;100.00
34065;BME280;20339;49.754;20.158;2023-02-01T00:03:08;95986.98;;;0.46;100.00
34065;BME280;20339;49.754;20.158;2023-02-01T00:05:41;95980.33;;;0.47;100.00
34065;BME280;20339;49.754;20.158;2023-02-01T00:08:12;95975.62;;;0.49;100.00
34065;BME280;20339;49.754;20.158;2023-02-01T00:10:43;95973.95;;;0.52;100.00
34065;BME280;20339;49.754;20.158;2023-02-01T00:13:14;95981.99;;;0.58;100.00
34065;BME280;20339;49.754;20.158;2023-02-01T00:15:45;95976.13;;;0.58;100.00
34065;BME280;20339;49.754;20.158;2023-02-01T00:18:17;95977.88;;;0.61;100.00
34065;BME280;20339;49.754;20.158;2023-02-01T00:20:55;95967.74;;;0.63;100.00
34065;BME280;20339;49.754;20.158;2023-02-01T00:23:27;95961.55;;;0.66;100.00
34065;BME280;20339;49.754;20.158;2023-02-01T00:26:01;95955.20;;;0.65;100.00
34065;BME280;20339;49.754;20.158;2023-02-01T00:28:32;95969.50;;;0.64;100.00
34065;BME280;20339;49.754;20.158;2023-02-01T00:31:05;95966.20;;;0.65;100.00
34065;BME280;20339;49.754;20.158;2023-02-01T00:33:36;95980.72;;;0.67;100.00
34065;BME280;20339;49.754;20.158;2023-02-01T00:36:09;95991.27;;;0.69;100.00
34065;BME280;20339;49.754;20.158;2023-02-01T00:38:40;95985.11;;;0.68;100.00
34065;BME280;20339;49.754;20.158;2023-02-01T00:41:14;95974.00;;;0.68;100.00
34065;BME280;20339;49.754;20.158;2023-02-01T00:43:45;95988.56;;;0.63;100.00
34065;BME280;20339;49.754;20.158;2023-02-01T00:46:18;95997.75;;;0.56;100.00
34065;BME280;20339;49.754;20.158;2023-02-01T00:48:51;95993.39;;;0.51;100.00
34065;BME280;20339;49.754;20.158;2023-02-01T00:51:24;95991.57;;;0.52;100.00
34065;BME280;20339;49.754;20.158;2023-02-01T00:53:55;95997.27;;;0.53;100.00
34065;BME280;20339;49.754;20.158;2023-02-01T00:56:29;96003.31;;;0.54;100.00
34065;BME280;20339;49.754;20.158;2023-02-01T00:59:00;96001.71;;;0.61;100.00
34065;BME280;20339;49.754;20.158;2023-02-01T01:01:31;95995.76;;;0.63;100.00
34065;BME280;20339;49.754;20.158;2023-02-01T01:04:02;95986.45;;;0.64;100.00
34065;BME280;20339;49.754;20.158;2023-02-01T01:06:34;95988.85;;;0.64;100.00
34065;BME280;20339;49.754;20.158;2023-02-01T01:09:07;95983.27;;;0.64;100.00
34065;BME280;20339;49.754;20.158;2023-02-01T01:11:38;95981.52;;;0.63;100.00
34065;BME280;20339;49.754;20.158;2023-02-01T01:14:11;95965.39;;;0.62;100.00
34065;BME280;20339;49.754;20.158;2023-02-01T01:16:42;95971.80;;;0.62;100.00
34065;BME280;20339;49.754;20.158;2023-02-01T01:19:13;95962.04;;;0.61;100.00
34065;BME280;20339;49.754;20.158;2023-02-01T01:21:44;95965.27;;;0.64;100.00
34065;BME280;20339;49.754;20.158;2023-02-01T01:24:15;95961.41;;;0.70;100.00
34065;BME280;20339;49.754;20.158;2023-02-01T01:26:46;95947.26;;;0.77;100.00
34065;BME280;20339;49.754;20.158;2023-02-01T01:29:17;95956.47;;;0.90;100.00
34065;BME280;20339;49.754;20.158;2023-02-01T01:31:48;95959.46;;;0.91;100.00
34065;BME280;20339;49.754;20.158;2023-02-01T01:34:19;95958.45;;;0.89;100.00
34065;BME280;20339;49.754;20.158;2023-02-01T01:36:50;95967.75;;;0.90;100.00
34065;BME280;20339;49.754;20.158;2023-02-01T01:39:21;95953.77;;;0.97;100.00
34065;BME280;20339;49.754;20.158;2023-02-01T01:41:52;95954.75;;;1.01;100.00
34065;BME280;20339;49.754;20.158;2023-02-01T01:45:01;95956.55;;;1.06;99.87
34065;BME280;20339;49.754;20.158;2023-02-01T01:47:37;95968.21;;;1.22;98.60
34065;BME280;20339;49.754;20.158;2023-02-01T01:50:15;95965.18;;;1.25;98.30
34065;BME280;20339;49.754;20.158;2023-02-01T01:52:48;95951.41;;;1.23;98.05
34065;BME280;20339;49.754;20.158;2023-02-01T01:55:21;95945.45;;;1.25;97.56
34065;BME280;20339;49.754;20.158;2023-02-01T01:57:55;95949.92;;;1.29;97.41
34065;BME280;20339;49.754;20.158;2023-02-01T02:00:28;95943.66;;;1.37;96.16
34065;BME280;20339;49.754;20.158;2023-02-01T02:03:12;95953.09;;;1.47;95.17
34065;BME280;20339;49.754;20.158;2023-02-01T02:05:46;95959.31;;;1.52;94.28
34065;BME280;20339;49.754;20.158;2023-02-01T02:08:20;95965.45;;;1.56;93.84
34065;BME280;20339;49.754;20.158;2023-02-01T02:10:54;95976.03;;;1.60;92.80
34065;BME280;20339;49.754;20.158;2023-02-01T02:13:34;95973.27;;;1.61;92.63
34065;BME280;20339;49.754;20.158;2023-02-01T02:16:40;95988.73;;;1.62;92.38
34065;BME280;20339;49.754;20.158;2023-02-01T02:19:43;96002.88;;;1.48;93.52
34065;BME280;20339;49.754;20.158;2023-02-01T02:22:42;96025.35;;;1.27;94.93
34065;BME280;20339;49.754;20.158;2023-02-01T02:25:39;96025.61;;;0.97;97.09
34065;BME280;20339;49.754;20.158;2023-02-01T02:28:24;96004.96;;;0.72;98.94
34065;BME280;20339;49.754;20.158;2023-02-01T02:31:15;96014.13;;;0.55;99.27
34065;BME280;20339;49.754;20.158;2023-02-01T02:34:11;96010.08;;;0.49;98.51
34065;BME280;20339;49.754;20.158;2023-02-01T02:36:54;96002.73;;;0.42;97.85
34065;BME280;20339;49.754;20.158;2023-02-01T02:39:37;95961.02;;;0.45;96.74
34065;BME280;20339;49.754;20.158;2023-02-01T02:42:14;95976.48;;;0.48;95.78
34065;BME280;20339;49.754;20.158;2023-02-01T02:45:10;95997.27;;;0.52;94.88
34065;BME280;20339;49.754;20.158;2023-02-01T02:48:06;96013.08;;;0.53;93.33
34065;BME280;20339;49.754;20.158;2023-02-01T02:50:43;96054.27;;;0.47;93.40
34065;BME280;20339;49.754;20.158;2023-02-01T02:53:38;96082.52;;;0.38;94.55
34065;BME280;20339;49.754;20.158;2023-02-01T02:56:36;96039.64;;;0.15;97.15
34065;BME280;20339;49.754;20.158;2023-02-01T02:59:33;96070.52;;;0.05;97.93
34065;BME280;20339;49.754;20.158;2023-02-01T03:02:23;96047.73;;;0.02;97.12
34065;BME280;20339;49.754;20.158;2023-02-01T03:05:15;96035.69;;;0.09;96.11
34065;BME280;20339;49.754;20.158;2023-02-01T03:07:55;96035.45;;;0.11;95.49
34065;BME280;20339;49.754;20.158;2023-02-01T03:10:35;96027.62;;;0.10;95.44
34065;BME280;20339;49.754;20.158;2023-02-01T03:13:16;96034.95;;;0.12;95.91
34065;BME280;20339;49.754;20.158;2023-02-01T03:15:54;96024.09;;;0.19;96.58
34065;BME280;20339;49.754;20.158;2023-02-01T03:18:32;96011.74;;;0.25;96.86
34065;BME280;20339;49.754;20.158;2023-02-01T03:21:10;96030.52;;;0.31;96.56
34065;BME280;20339;49.754;20.158;2023-02-01T03:23:44;96037.17;;;0.39;96.63
34065;BME280;20339;49.754;20.158;2023-02-01T03:26:18;96002.63;;;0.49;96.33
34065;BME280;20339;49.754;20.158;2023-02-01T03:28:57;96010.02;;;0.61;96.40
34065;BME280;20339;49.754;20.158;2023-02-01T03:31:31;96017.67;;;0.66;96.24
34065;BME280;20339;49.754;20.158;2023-02-01T03:34:02;96005.02;;;0.68;96.51
34065;BME280;20339;49.754;20.158;2023-02-01T03:36:38;96037.38;;;0.68;96.49
34065;BME280;20339;49.754;20.158;2023-02-01T03:39:16;96028.57;;;0.68;96.36
34065;BME280;20339;49.754;20.158;2023-02-01T03:41:53;96036.58;;;0.69;95.98
34065;BME280;20339;49.754;20.158;2023-02-01T03:44:26;96031.23;;;0.68;96.03
34065;BME280;20339;49.754;20.158;2023-02-01T03:47:02;96037.71;;;0.63;96.33
34065;BME280;20339;49.754;20.158;2023-02-01T03:49:39;96044.34;;;0.63;96.09
34065;BME280;20339;49.754;20.158;2023-02-01T03:52:15;96040.41;;;0.63;96.10
34065;BME280;20339;49.754;20.158;2023-02-01T03:54:48;96031.58;;;0.59;96.31
34065;BME280;20339;49.754;20.158;2023-02-01T03:57:22;96044.23;;;0.58;96.27
34065;BME280;20339;49.754;20.158;2023-02-01T04:00:05;96027.50;;;0.58;96.32
34065;BME280;20339;49.754;20.158;2023-02-01T04:02:38;96025.72;;;0.64;95.94
34065;BME280;20339;49.754;20.158;2023-02-01T04:05:09;96046.64;;;0.71;95.45
34065;BME280;20339;49.754;20.158;2023-02-01T04:07:41;96023.01;;;0.71;95.09
34065;BME280;20339;49.754;20.158;2023-02-01T04:10:13;96037.38;;;0.75;94.59
34065;BME280;20339;49.754;20.158;2023-02-01T04:12:44;96027.70;;;0.76;94.37
34065;BME280;20339;49.754;20.158;2023-02-01T04:15:15;96031.20;;;0.79;93.92
34065;BME280;20339;49.754;20.158;2023-02-01T04:17:46;96065.85;;;0.79;93.51
34065;BME280;20339;49.754;20.158;2023-02-01T04:20:18;96034.16;;;0.79;93.30
34065;BME280;20339;49.754;20.158;2023-02-01T04:22:49;96056.41;;;0.80;92.81
34065;BME280;20339;49.754;20.158;2023-02-01T04:25:20;96066.17;;;0.80;93.09
34065;BME280;20339;49.754;20.158;2023-02-01T04:27:51;96083.31;;;0.76;93.25
34065;BME280;20339;49.754;20.158;2023-02-01T04:30:22;96067.79;;;0.75;93.43
34065;BME280;20339;49.754;20.158;2023-02-01T04:32:54;96076.63;;;0.75;93.45
34065;BME280;20339;49.754;20.158;2023-02-01T04:35:25;96089.95;;;0.77;93.64
34065;BME280;20339;49.754;20.158;2023-02-01T04:37:59;96090.27;;;0.73;93.73
34065;BME280;20339;49.754;20.158;2023-02-01T04:40:30;96086.68;;;0.70;93.92
34065;BME280;20339;49.754;20.158;2023-02-01T04:43:01;96081.91;;;0.73;93.45
34065;BME280;20339;49.754;20.158;2023-02-01T04:45:33;96104.85;;;0.72;93.69
34065;BME280;20339;49.754;20.158;2023-02-01T04:48:04;96114.75;;;0.66;94.63
34065;BME280;20339;49.754;20.158;2023-02-01T04:50:38;96120.70;;;0.58;95.40
34065;BME280;20339;49.754;20.158;2023-02-01T04:53:09;96091.30;;;0.50;95.54
34065;BME280;20339;49.754;20.158;2023-02-01T04:55:40;96096.34;;;0.42;96.33
34065;BME280;20339;49.754;20.158;2023-02-01T04:58:11;96111.57;;;0.35;96.80
34065;BME280;20339;49.754;20.158;2023-02-01T05:00:42;96090.31;;;0.33;96.99
34065;BME280;20339;49.754;20.158;2023-02-01T05:03:13;96090.48;;;0.35;96.80
34065;BME280;20339;49.754;20.158;2023-02-01T05:05:44;96120.19;;;0.40;96.54
34065;BME280;20339;49.754;20.158;2023-02-01T05:08:15;96088.14;;;0.45;96.41
34065;BME280;20339;49.754;20.158;2023-02-01T05:10:47;96083.17;;;0.47;95.93
34065;BME280;20339;49.754;20.158;2023-02-01T05:13:19;96096.69;;;0.50;95.44
34065;BME280;20339;49.754;20.158;2023-02-01T05:16:08;96103.66;;;0.50;94.75
34065;BME280;20339;49.754;20.158;2023-02-01T05:18:39;96099.38;;;0.49;94.24
34065;BME280;20339;49.754;20.158;2023-02-01T05:21:10;96102.80;;;0.53;93.88
34065;BME280;20339;49.754;20.158;2023-02-01T05:23:41;96103.85;;;0.60;93.45
34065;BME280;20339;49.754;20.158;2023-02-01T05:26:30;96107.95;;;0.64;93.01
34065;BME280;20339;49.754;20.158;2023-02-01T05:29:01;96114.84;;;0.63;93.38
34065;BME280;20339;49.754;20.158;2023-02-01T05:31:33;96113.92;;;0.61;93.43
34065;BME280;20339;49.754;20.158;2023-02-01T05:34:04;96110.11;;;0.58;93.42
34065;BME280;20339;49.754;20.158;2023-02-01T05:36:36;96107.33;;;0.57;93.55
34065;BME280;20339;49.754;20.158;2023-02-01T05:39:09;96110.28;;;0.58;93.68
34065;BME280;20339;49.754;20.158;2023-02-01T05:41:40;96109.52;;;0.59;93.42
34065;BME280;20339;49.754;20.158;2023-02-01T05:44:12;96094.36;;;0.61;93.26
34065;BME280;20339;49.754;20.158;2023-02-01T05:46:43;96100.55;;;0.67;93.02
34065;BME280;20339;49.754;20.158;2023-02-01T05:49:14;96106.20;;;0.72;92.91
34065;BME280;20339;49.754;20.158;2023-02-01T05:51:49;96106.43;;;0.71;92.74
34065;BME280;20339;49.754;20.158;2023-02-01T05:54:20;96106.83;;;0.72;92.55
34065;BME280;20339;49.754;20.158;2023-02-01T05:56:51;96101.22;;;0.79;91.89
34065;BME280;20339;49.754;20.158;2023-02-01T05:59:22;96102.09;;;0.84;91.61
34065;BME280;20339;49.754;20.158;2023-02-01T06:01:53;96110.28;;;0.83;91.30
34065;BME280;20339;49.754;20.158;2023-02-01T06:04:27;96103.74;;;0.86;91.02
34065;BME280;20339;49.754;20.158;2023-02-01T06:06:58;96097.79;;;0.89;90.57
34065;BME280;20339;49.754;20.158;2023-02-01T06:09:28;96101.89;;;0.91;90.15
34065;BME280;20339;49.754;20.158;2023-02-01T06:11:59;96098.00;;;0.95;89.75
34065;BME280;20339;49.754;20.158;2023-02-01T06:14:31;96108.09;;;0.96;89.59
34065;BME280;20339;49.754;20.158;2023-02-01T06:17:06;96097.15;;;0.95;89.58
34065;BME280;20339;49.754;20.158;2023-02-01T06:19:37;96103.30;;;0.96;89.38
34065;BME280;20339;49.754;20.158;2023-02-01T06:22:10;96104.68;;;0.98;89.09
34065;BME280;20339;49.754;20.158;2023-02-01T06:24:41;96108.41;;;0.98;88.83
34065;BME280;20339;49.754;20.158;2023-02-01T06:27:12;96104.31;;;1.01;88.33
34065;BME280;20339;49.754;20.158;2023-02-01T06:29:44;96106.95;;;1.03;88.19
34065;BME280;20339;49.754;20.158;2023-02-01T06:32:15;96107.03;;;1.02;88.04
34065;BME280;20339;49.754;20.158;2023-02-01T06:34:46;96108.60;;;1.02;87.70
34065;BME280;20339;49.754;20.158;2023-02-01T06:37:17;96112.55;;;1.04;87.43
34065;BME280;20339;49.754;20.158;2023-02-01T06:39:48;96115.13;;;1.04;86.92
34065;BME280;20339;49.754;20.158;2023-02-01T06:42:19;96111.29;;;1.06;86.69
34065;BME280;20339;49.754;20.158;2023-02-01T06:44:51;96111.96;;;1.06;86.36
34065;BME280;20339;49.754;20.158;2023-02-01T06:47:21;96117.63;;;1.10;85.90
34065;BME280;20339;49.754;20.158;2023-02-01T06:49:52;96111.63;;;1.10;85.77
34065;BME280;20339;49.754;20.158;2023-02-01T06:52:23;96108.47;;;1.11;85.14
34065;BME280;20339;49.754;20.158;2023-02-01T06:54:54;96113.81;;;1.17;84.27
34065;BME280;20339;49.754;20.158;2023-02-01T06:57:25;96111.22;;;1.18;84.32
34065;BME280;20339;49.754;20.158;2023-02-01T07:00:00;96111.48;;;1.18;83.91
34065;BME280;20339;49.754;20.158;2023-02-01T07:02:31;96117.02;;;1.18;84.07
34065;BME280;20339;49.754;20.158;2023-02-01T07:05:02;96115.58;;;1.19;83.54
34065;BME280;20339;49.754;20.158;2023-02-01T07:07:33;96114.64;;;1.25;82.79
34065;BME280;20339;49.754;20.158;2023-02-01T07:10:05;96110.05;;;1.28;82.65
34065;BME280;20339;49.754;20.158;2023-02-01T07:12:36;96111.19;;;1.27;82.70
34065;BME280;20339;49.754;20.158;2023-02-01T07:15:10;96106.78;;;1.27;82.35
34065;BME280;20339;49.754;20.158;2023-02-01T07:17:44;96109.23;;;1.28;82.01
34065;BME280;20339;49.754;20.158;2023-02-01T07:20:17;96111.20;;;1.27;82.01
34065;BME280;20339;49.754;20.158;2023-02-01T07:22:48;96110.99;;;1.26;82.27
34065;BME280;20339;49.754;20.158;2023-02-01T07:25:19;96113.52;;;1.25;82.70
34065;BME280;20339;49.754;20.158;2023-02-01T07:27:50;96113.55;;;1.23;82.71
34065;BME280;20339;49.754;20.158;2023-02-01T07:30:21;96113.92;;;1.21;82.89
34065;BME280;20339;49.754;20.158;2023-02-01T07:32:53;96116.73;;;1.17;83.47
34065;BME280;20339;49.754;20.158;2023-02-01T07:35:24;96114.99;;;1.13;83.93
34065;BME280;20339;49.754;20.158;2023-02-01T07:37:56;96114.31;;;1.09;84.29
34065;BME280;20339;49.754;20.158;2023-02-01T07:40:28;96113.67;;;1.05;84.51
34065;BME280;20339;49.754;20.158;2023-02-01T07:43:00;96115.27;;;1.04;85.05
34065;BME280;20339;49.754;20.158;2023-02-01T07:45:30;96115.70;;;1.00;85.24
34065;BME280;20339;49.754;20.158;2023-02-01T07:48:02;96113.10;;;0.98;85.38
34065;BME280;20339;49.754;20.158;2023-02-01T07:50:34;96110.31;;;0.99;85.43
34065;BME280;20339;49.754;20.158;2023-02-01T07:53:05;96108.55;;;0.99;85.70
34065;BME280;20339;49.754;20.158;2023-02-01T07:55:38;96111.16;;;1.00;85.72
34065;BME280;20339;49.754;20.158;2023-02-01T07:58:10;96098.71;;;1.01;85.62
34065;BME280;20339;49.754;20.158;2023-02-01T08:00:41;96108.58;;;1.01;85.53
34065;BME280;20339;49.754;20.158;2023-02-01T08:03:30;96103.14;;;1.03;85.56
34065;BME280;20339;49.754;20.158;2023-02-01T08:06:01;96103.73;;;1.04;85.59
34065;BME280;20339;49.754;20.158;2023-02-01T08:08:32;96102.73;;;1.04;85.52
34065;BME280;20339;49.754;20.158;2023-02-01T08:11:05;96100.73;;;1.03;85.70
34065;BME280;20339;49.754;20.158;2023-02-01T08:13:37;96092.28;;;1.03;85.88
34065;BME280;20339;49.754;20.158;2023-02-01T08:16:10;96100.23;;;1.04;85.91
34065;BME280;20339;49.754;20.158;2023-02-01T08:18:42;96090.30;;;1.06;86.04
34065;BME280;20339;49.754;20.158;2023-02-01T08:21:15;96090.02;;;1.11;85.99
34065;BME280;20339;49.754;20.158;2023-02-01T08:23:46;96091.39;;;1.13;85.89
34065;BME280;20339;49.754;20.158;2023-02-01T08:26:19;96091.30;;;1.16;85.70
34065;BME280;20339;49.754;20.158;2023-02-01T08:28:53;96092.44;;;1.19;85.51
34065;BME280;20339;49.754;20.158;2023-02-01T08:31:26;96095.15;;;1.22;85.41
34065;BME280;20339;49.754;20.158;2023-02-01T08:34:00;96095.28;;;1.26;85.19
34065;BME280;20339;49.754;20.158;2023-02-01T08:36:34;96099.33;;;1.32;84.82
34065;BME280;20339;49.754;20.158;2023-02-01T08:39:05;96096.27;;;1.39;84.46
34065;BME280;20339;49.754;20.158;2023-02-01T08:41:39;96098.90;;;1.45;84.30
34065;BME280;20339;49.754;20.158;2023-02-01T08:44:11;96096.79;;;1.50;83.99
34065;BME280;20339;49.754;20.158;2023-02-01T08:46:43;96089.75;;;1.56;83.82
34065;BME280;20339;49.754;20.158;2023-02-01T08:49:14;96098.58;;;1.62;83.72
34065;BME280;20339;49.754;20.158;2023-02-01T08:51:46;96096.75;;;1.65;82.66
34065;BME280;20339;49.754;20.158;2023-02-01T08:54:17;96093.66;;;1.61;82.27
34065;BME280;20339;49.754;20.158;2023-02-01T08:56:48;96090.05;;;1.59;82.20
34065;BME280;20339;49.754;20.158;2023-02-01T08:59:20;96090.88;;;1.58;82.40
34065;BME280;20339;49.754;20.158;2023-02-01T09:01:54;96087.65;;;1.54;82.34
34065;BME280;20339;49.754;20.158;2023-02-01T09:04:33;96100.17;;;1.53;82.43
34065;BME280;20339;49.754;20.158;2023-02-01T09:07:04;96093.60;;;1.50;82.36
34065;BME280;20339;49.754;20.158;2023-02-01T09:09:35;96089.01;;;1.47;82.31
34065;BME280;20339;49.754;20.158;2023-02-01T09:12:08;96092.14;;;1.47;82.11
34065;BME280;20339;49.754;20.158;2023-02-01T09:14:41;96083.64;;;1.48;81.96
34065;BME280;20339;49.754;20.158;2023-02-01T09:17:12;96090.27;;;1.51;81.62
34065;BME280;20339;49.754;20.158;2023-02-01T09:19:44;96084.71;;;1.50;81.90
34065;BME280;20339;49.754;20.158;2023-02-01T09:22:15;96084.20;;;1.50;81.92
34065;BME280;20339;49.754;20.158;2023-02-01T09:24:47;96075.90;;;1.51;81.82
34065;BME280;20339;49.754;20.158;2023-02-01T09:27:18;96079.98;;;1.54;81.72
34065;BME280;20339;49.754;20.158;2023-02-01T09:29:50;96079.26;;;1.60;81.46
34065;BME280;20339;49.754;20.158;2023-02-01T09:32:23;96067.08;;;1.65;81.06
34065;BME280;20339;49.754;20.158;2023-02-01T09:34:55;96065.05;;;1.70;81.02
34065;BME280;20339;49.754;20.158;2023-02-01T09:37:26;96058.58;;;1.75;80.63
34065;BME280;20339;49.754;20.158;2023-02-01T09:39:59;96056.95;;;1.79;80.73
34065;BME280;20339;49.754;20.158;2023-02-01T09:42:46;96045.09;;;1.85;81.09
34065;BME280;20339;49.754;20.158;2023-02-01T09:45:24;96032.17;;;1.92;80.91
34065;BME280;20339;49.754;20.158;2023-02-01T09:48:02;96031.48;;;1.97;80.75
34065;BME280;20339;49.754;20.158;2023-02-01T09:50:37;96027.45;;;2.03;80.90
34065;BME280;20339;49.754;20.158;2023-02-01T09:53:15;96024.90;;;2.08;80.58
34065;BME280;20339;49.754;20.158;2023-02-01T09:55:51;96019.25;;;2.13;80.53
34065;BME280;20339;49.754;20.158;2023-02-01T09:58:27;96021.89;;;2.20;80.45
34065;BME280;20339;49.754;20.158;2023-02-01T10:01:01;96017.29;;;2.23;80.19
34065;BME280;20339;49.754;20.158;2023-02-01T10:03:34;96016.77;;;2.26;79.79
34065;BME280;20339;49.754;20.158;2023-02-01T10:06:30;96016.86;;;2.23;79.32
34065;BME280;20339;49.754;20.158;2023-02-01T10:09:19;96026.51;;;2.20;79.40
34065;BME280;20339;49.754;20.158;2023-02-01T10:12:20;96026.73;;;2.18;79.32
34065;BME280;20339;49.754;20.158;2023-02-01T10:15:01;96017.45;;;2.19;78.98
34065;BME280;20339;49.754;20.158;2023-02-01T10:17:47;96024.39;;;2.18;78.92
34065;BME280;20339;49.754;20.158;2023-02-01T10:20:26;96025.51;;;2.20;79.14
34065;BME280;20339;49.754;20.158;2023-02-01T10:23:11;96025.27;;;2.25;79.45
34065;BME280;20339;49.754;20.158;2023-02-01T10:25:55;96020.42;;;2.29;79.19
34065;BME280;20339;49.754;20.158;2023-02-01T10:28:26;96020.73;;;2.29;79.05
34065;BME280;20339;49.754;20.158;2023-02-01T10:31:00;96025.77;;;2.30;79.69
34065;BME280;20339;49.754;20.158;2023-02-01T10:33:36;96023.69;;;2.27;80.17
34065;BME280;20339;49.754;20.158;2023-02-01T10:36:15;96029.05;;;2.19;80.92
34065;BME280;20339;49.754;20.158;2023-02-01T10:38:49;96029.22;;;2.13;81.56
34065;BME280;20339;49.754;20.158;2023-02-01T10:41:22;96027.41;;;2.03;82.27
34065;BME280;20339;49.754;20.158;2023-02-01T10:43:58;96034.19;;;1.87;83.78
34065;BME280;20339;49.754;20.158;2023-02-01T10:46:31;96031.02;;;1.65;85.59
34065;BME280;20339;49.754;20.158;2023-02-01T10:49:04;96035.17;;;1.46;87.32
34065;BME280;20339;49.754;20.158;2023-02-01T10:51:45;96028.73;;;1.36;88.58
34065;BME280;20339;49.754;20.158;2023-02-01T10:54:19;96028.66;;;1.32;89.46
34065;BME280;20339;49.754;20.158;2023-02-01T10:56:51;96016.60;;;1.38;90.09
34065;BME280;20339;49.754;20.158;2023-02-01T10:59:28;96018.92;;;1.51;90.05
34065;BME280;20339;49.754;20.158;2023-02-01T11:02:05;96010.34;;;1.59;90.08
34065;BME280;20339;49.754;20.158;2023-02-01T11:04:45;96017.34;;;1.66;90.14
34065;BME280;20339;49.754;20.158;2023-02-01T11:07:22;96007.84;;;1.75;90.36
34065;BME280;20339;49.754;20.158;2023-02-01T11:09:56;96005.32;;;1.71;90.50
34065;BME280;20339;49.754;20.158;2023-02-01T11:12:32;96002.54;;;1.73;90.65
34065;BME280;20339;49.754;20.158;2023-02-01T11:15:18;96000.63;;;1.79;90.66
34065;BME280;20339;49.754;20.158;2023-02-01T11:17:51;96000.46;;;1.85;90.74
34065;BME280;20339;49.754;20.158;2023-02-01T11:20:38;95993.67;;;1.85;90.74
34065;BME280;20339;49.754;20.158;2023-02-01T11:23:19;95989.14;;;1.89;90.71
34065;BME280;20339;49.754;20.158;2023-02-01T11:25:52;95989.56;;;1.90;90.72
34065;BME280;20339;49.754;20.158;2023-02-01T11:28:27;95983.38;;;1.93;90.74
34065;BME280;20339;49.754;20.158;2023-02-01T11:31:03;95985.98;;;1.96;90.65
34065;BME280;20339;49.754;20.158;2023-02-01T11:33:38;95978.64;;;2.05;90.77
34065;BME280;20339;49.754;20.158;2023-02-01T11:36:14;95982.32;;;2.16;90.59
34065;BME280;20339;49.754;20.158;2023-02-01T11:38:54;95982.33;;;2.28;90.58
34065;BME280;20339;49.754;20.158;2023-02-01T11:41:42;95979.45;;;2.37;89.97
34065;BME280;20339;49.754;20.158;2023-02-01T11:44:26;95980.95;;;2.27;89.56
34065;BME280;20339;49.754;20.158;2023-02-01T11:50:00;95974.77;;;2.09;89.74
34065;BME280;20339;49.754;20.158;2023-02-01T11:52:53;95966.27;;;2.13;89.92
34065;BME280;20339;49.754;20.158;2023-02-01T11:55:46;95968.36;;;2.16;89.95
34065;BME280;20339;49.754;20.158;2023-02-01T12:01:42;95950.52;;;2.01;89.81
34065;BME280;20339;49.754;20.158;2023-02-01T12:04:48;95958.63;;;1.95;90.07
34065;BME280;20339;49.754;20.158;2023-02-01T12:07:31;95953.19;;;1.95;90.08
34065;BME280;20339;49.754;20.158;2023-02-01T12:10:21;95956.89;;;1.86;90.04
34065;BME280;20339;49.754;20.158;2023-02-01T12:13:06;95955.98;;;1.80;90.24
34065;BME280;20339;49.754;20.158;2023-02-01T12:15:52;95946.30;;;1.73;90.63
34065;BME280;20339;49.754;20.158;2023-02-01T12:18:44;95937.63;;;1.74;91.03
34065;BME280;20339;49.754;20.158;2023-02-01T12:21:32;95936.30;;;1.80;91.31
34065;BME280;20339;49.754;20.158;2023-02-01T12:24:29;95925.30;;;1.89;91.15
34065;BME280;20339;49.754;20.158;2023-02-01T12:27:15;95930.33;;;1.93;91.11
34065;BME280;20339;49.754;20.158;2023-02-01T12:30:13;95922.86;;;1.94;90.87
34065;BME280;20339;49.754;20.158;2023-02-01T12:32:57;95923.27;;;1.93;90.48
34065;BME280;20339;49.754;20.158;2023-02-01T12:35:53;95927.50;;;1.94;90.19
34065;BME280;20339;49.754;20.158;2023-02-01T12:38:41;95921.48;;;1.94;89.78
34065;BME280;20339;49.754;20.158;2023-02-01T12:41:17;95913.05;;;1.98;89.84
34065;BME280;20339;49.754;20.158;2023-02-01T12:43:58;95918.23;;;1.99;89.51
34065;BME280;20339;49.754;20.158;2023-02-01T12:46:35;95913.63;;;2.02;89.15
34065;BME280;20339;49.754;20.158;2023-02-01T12:49:14;95910.61;;;2.00;89.04
34065;BME280;20339;49.754;20.158;2023-02-01T12:51:50;95915.15;;;1.99;88.95
34065;BME280;20339;49.754;20.158;2023-02-01T12:54:30;95910.45;;;1.99;88.73
34065;BME280;20339;49.754;20.158;2023-02-01T12:57:06;95911.73;;;1.95;88.90
34065;BME280;20339;49.754;20.158;2023-02-01T12:59:44;95911.70;;;1.92;88.81
34065;BME280;20339;49.754;20.158;2023-02-01T13:02:24;95911.14;;;1.89;88.87
34065;BME280;20339;49.754;20.158;2023-02-01T13:05:11;95918.77;;;1.89;88.85
34065;BME280;20339;49.754;20.158;2023-02-01T13:07:48;95912.88;;;1.86;88.61
34065;BME280;20339;49.754;20.158;2023-02-01T13:10:32;95913.92;;;1.80;88.55
34065;BME280;20339;49.754;20.158;2023-02-01T13:13:11;95912.25;;;1.75;88.78
34065;BME280;20339;49.754;20.158;2023-02-01T13:15:48;95911.17;;;1.73;89.19
34065;BME280;20339;49.754;20.158;2023-02-01T13:18:26;95910.73;;;1.76;89.48
34065;BME280;20339;49.754;20.158;2023-02-01T13:21:07;95918.27;;;1.77;89.54
34065;BME280;20339;49.754;20.158;2023-02-01T13:23:40;95899.37;;;1.77;89.27
34065;BME280;20339;49.754;20.158;2023-02-01T13:26:13;95903.31;;;1.75;89.43
34065;BME280;20339;49.754;20.158;2023-02-01T13:28:47;95900.13;;;1.79;89.52
34065;BME280;20339;49.754;20.158;2023-02-01T13:31:34;95897.92;;;1.80;89.34
34065;BME280;20339;49.754;20.158;2023-02-01T13:37:37;95897.29;;;1.85;89.35
34065;BME280;20339;49.754;20.158;2023-02-01T13:40:26;95889.58;;;1.91;89.09
34065;BME280;20339;49.754;20.158;2023-02-01T13:43:09;95874.19;;;1.94;88.91
34065;BME280;20339;49.754;20.158;2023-02-01T13:45:49;95883.45;;;1.91;88.71
34065;BME280;20339;49.754;20.158;2023-02-01T13:48:26;95874.96;;;1.94;88.65
34065;BME280;20339;49.754;20.158;2023-02-01T13:51:03;95875.90;;;1.93;88.59
34065;BME280;20339;49.754;20.158;2023-02-01T13:53:38;95872.25;;;1.89;88.16
34065;BME280;20339;49.754;20.158;2023-02-01T13:56:18;95874.77;;;1.90;88.45